createdAt,value
2023-05-20T00:00:02.246Z,99.12
2023-05-20T00:02:34.245Z,100.00
2023-05-20T00:05:02.178Z,98.73
2023-05-20T00:07:30.332Z,97.84
2023-05-20T00:09:57.957Z,98.11
2023-05-20T00:12:25.558Z,98.79
2023-05-20T00:14:53.957Z,97.37
2023-05-20T00:17:23.386Z,98.69
2023-05-20T00:19:51.527Z,97.20
2023-05-20T00:22:19.012Z,97.86
2023-05-20T00:24:47.151Z,96.88
2023-05-20T00:27:15.275Z,97.94
2023-05-20T00:29:43.376Z,97.00
2023-05-20T00:32:11.446Z,97.10
2023-05-20T00:34:39.214Z,95.56
2023-05-20T00:37:07.296Z,95.54
2023-05-20T00:39:34.882Z,94.33
2023-05-20T00:42:03.556Z,94.74
2023-05-20T00:44:31.187Z,95.19
2023-05-20T00:46:58.810Z,95.43
2023-05-20T00:49:26.545Z,96.33
2023-05-20T00:51:54.818Z,95.91
2023-05-20T00:54:22.645Z,95.92
2023-05-20T00:56:51.100Z,96.76
2023-05-20T00:59:19.000Z,95.79
2023-05-20T01:01:47.236Z,94.63
2023-05-20T01:04:15.760Z,93.72
2023-05-20T01:06:46.293Z,95.27
2023-05-20T01:09:14.020Z,93.13
2023-05-20T01:12:16.881Z,93.48
2023-05-20T01:14:50.080Z,94.20
2023-05-20T01:17:20.988Z,93.31
2023-05-20T01:19:49.592Z,92.73
2023-05-20T01:22:17.246Z,91.88
2023-05-20T01:24:53.531Z,94.45
2023-05-20T01:27:22.710Z,96.67
2023-05-20T01:29:51.946Z,96.46
2023-05-20T01:32:25.333Z,94.66
2023-05-20T01:34:53.917Z,93.70
2023-05-20T01:37:23.294Z,94.88
2023-05-20T01:39:52.446Z,96.01
2023-05-20T01:42:21.132Z,93.90
2023-05-20T01:44:50.139Z,96.73
2023-05-20T01:47:18.257Z,96.14
2023-05-20T01:49:46.446Z,97.65
2023-05-20T01:52:14.182Z,98.87
2023-05-20T01:54:42.199Z,98.59
2023-05-20T01:57:10.975Z,98.35
2023-05-20T01:59:39.804Z,97.61
2023-05-20T02:02:07.982Z,97.33
2023-05-20T02:04:36.310Z,98.50
2023-05-20T02:07:04.535Z,97.02
2023-05-20T02:09:32.073Z,96.39
2023-05-20T02:11:59.719Z,97.31
2023-05-20T02:14:27.621Z,96.86
2023-05-20T02:16:56.427Z,97.29
2023-05-20T02:19:24.265Z,96.56
2023-05-20T02:21:51.824Z,95.88
2023-05-20T02:24:21.289Z,96.53
2023-05-20T02:26:51.237Z,96.01
2023-05-20T02:29:22.129Z,93.69
2023-05-20T02:31:50.779Z,95.50
2023-05-20T02:34:19.179Z,94.62
2023-05-20T02:36:46.818Z,93.61
2023-05-20T02:39:14.509Z,93.50
2023-05-20T02:41:42.467Z,94.16
2023-05-20T02:44:10.947Z,93.61
2023-05-20T02:46:38.978Z,92.49
2023-05-20T02:49:06.596Z,91.72
2023-05-20T02:51:34.181Z,91.91
2023-05-20T02:54:02.284Z,91.02
2023-05-20T02:56:30.138Z,89.78
2023-05-20T02:58:57.700Z,89.31
2023-05-20T03:01:25.804Z,89.87
2023-05-20T03:03:53.911Z,88.98
2023-05-20T03:06:21.561Z,91.20
2023-05-20T03:08:51.404Z,91.90
2023-05-20T03:11:19.407Z,94.50
2023-05-20T03:13:47.536Z,92.97
2023-05-20T03:16:18.583Z,93.81
2023-05-20T03:18:46.588Z,91.58
2023-05-20T03:21:14.969Z,91.43
2023-05-20T03:23:42.967Z,92.61
2023-05-20T03:26:10.520Z,93.81
2023-05-20T03:28:38.118Z,95.77
2023-05-20T03:31:06.631Z,95.10
2023-05-20T03:33:36.072Z,98.32
2023-05-20T03:36:05.093Z,98.24
2023-05-20T03:38:33.272Z,99.75
2023-05-20T03:41:01.466Z,100.00
2023-05-20T03:43:29.027Z,100.00
2023-05-20T03:45:57.162Z,100.00
2023-05-20T03:48:24.878Z,100.00
2023-05-20T03:50:53.351Z,100.00
2023-05-20T03:53:21.232Z,100.00
2023-05-20T03:55:48.885Z,100.00
2023-05-20T03:58:16.774Z,100.00
2023-05-20T04:00:44.759Z,98.49
2023-05-20T04:03:13.000Z,100.00
2023-05-20T04:05:40.642Z,100.00
2023-05-20T04:08:16.150Z,98.91
2023-05-20T04:10:44.586Z,99.57
2023-05-20T04:13:13.567Z,100.00
2023-05-20T04:15:42.441Z,98.75
2023-05-20T04:18:13.268Z,99.18
2023-05-20T04:20:41.706Z,98.98
2023-05-20T04:23:10.831Z,99.53
2023-05-20T04:25:39.330Z,99.84
2023-05-20T04:28:10.813Z,99.08
2023-05-20T04:30:38.841Z,100.00
2023-05-20T04:33:06.915Z,99.29
2023-05-20T04:35:37.647Z,98.22
2023-05-20T04:38:07.673Z,100.00
2023-05-20T04:40:35.632Z,100.00
2023-05-20T04:43:04.087Z,100.00
2023-05-20T04:45:34.240Z,100.00
2023-05-20T04:48:02.197Z,100.00
2023-05-20T04:50:29.798Z,100.00
2023-05-20T04:52:57.758Z,100.00
2023-05-20T04:55:26.010Z,100.00
2023-05-20T04:57:54.241Z,100.00
2023-05-20T05:00:21.811Z,100.00
2023-05-20T05:02:49.927Z,100.00
2023-05-20T05:05:17.964Z,100.00
2023-05-20T05:07:45.922Z,100.00
2023-05-20T05:10:14.020Z,100.00
2023-05-20T05:12:42.063Z,100.00
2023-05-20T05:15:11.087Z,100.00
2023-05-20T05:17:38.876Z,100.00
2023-05-20T05:20:08.918Z,99.82
2023-05-20T05:22:37.190Z,99.26
2023-05-20T05:25:05.358Z,98.51
2023-05-20T05:27:33.032Z,100.00
2023-05-20T05:30:03.067Z,99.36
2023-05-20T05:32:32.199Z,99.50
2023-05-20T05:35:00.153Z,97.46
2023-05-20T05:37:29.639Z,97.55
2023-05-20T05:39:57.284Z,97.60
2023-05-20T05:42:25.487Z,95.01
2023-05-20T05:44:53.572Z,95.65
2023-05-20T05:47:21.805Z,94.19
2023-05-20T05:49:49.633Z,90.51
2023-05-20T05:52:17.186Z,89.76
2023-05-20T05:54:44.754Z,93.49
2023-05-20T05:57:13.181Z,90.15
2023-05-20T05:59:41.563Z,89.65
2023-05-20T06:02:10.925Z,90.31
2023-05-20T06:04:39.021Z,88.21
2023-05-20T06:07:07.157Z,83.49
2023-05-20T06:09:35.302Z,87.13
2023-05-20T06:12:03.746Z,87.90
2023-05-20T06:14:32.626Z,89.31
2023-05-20T06:17:01.128Z,90.39
2023-05-20T06:19:29.620Z,91.75
2023-05-20T06:21:58.789Z,92.04
2023-05-20T06:24:26.853Z,91.01
2023-05-20T06:26:55.156Z,92.76
2023-05-20T06:29:23.771Z,92.40
2023-05-20T06:31:51.783Z,95.71
2023-05-20T06:34:19.416Z,96.21
2023-05-20T06:36:47.110Z,95.71
2023-05-20T06:39:16.368Z,95.47
2023-05-20T06:41:45.942Z,96.47
2023-05-20T06:44:20.418Z,97.13
2023-05-20T06:47:18.429Z,96.21
2023-05-20T06:49:48.596Z,95.04
2023-05-20T06:52:17.620Z,96.30
2023-05-20T06:54:46.168Z,96.17
2023-05-20T06:57:15.167Z,92.33
2023-05-20T06:59:42.729Z,92.95
2023-05-20T07:02:11.713Z,93.72
2023-05-20T07:04:39.366Z,95.78
2023-05-20T07:07:06.982Z,93.06
2023-05-20T07:09:34.626Z,90.55
2023-05-20T07:12:02.360Z,92.21
2023-05-20T07:14:30.832Z,94.36
2023-05-20T07:16:58.392Z,90.92
2023-05-20T07:19:26.068Z,88.99
2023-05-20T07:21:54.388Z,89.59
2023-05-20T07:24:40.853Z,91.21
2023-05-20T07:27:09.537Z,90.37
2023-05-20T07:29:37.533Z,89.99
2023-05-20T07:32:06.064Z,90.94
2023-05-20T07:34:35.607Z,91.66
2023-05-20T07:37:04.270Z,91.00
2023-05-20T07:39:32.791Z,91.80
2023-05-20T07:42:00.397Z,91.88
2023-05-20T07:44:28.059Z,95.44
2023-05-20T07:46:56.729Z,96.27
2023-05-20T07:49:24.775Z,99.91
2023-05-20T07:51:52.550Z,100.00
2023-05-20T07:54:20.783Z,100.00
2023-05-20T07:56:51.586Z,98.19
2023-05-20T07:59:19.907Z,98.37
2023-05-20T08:01:49.579Z,94.41
2023-05-20T08:04:19.941Z,94.80
2023-05-20T08:06:47.548Z,91.00
2023-05-20T08:09:22.614Z,90.24
2023-05-20T08:11:54.219Z,90.79
2023-05-20T08:14:21.855Z,88.91
2023-05-20T08:16:55.012Z,90.01
2023-05-20T08:19:23.269Z,89.74
2023-05-20T08:21:51.063Z,91.44
2023-05-20T08:24:19.078Z,94.28
2023-05-20T08:26:47.120Z,94.31
2023-05-20T08:29:16.495Z,95.34
2023-05-20T08:31:44.959Z,95.58
2023-05-20T08:34:13.790Z,95.84
2023-05-20T08:36:42.432Z,98.68
2023-05-20T08:39:10.782Z,99.12
2023-05-20T08:41:39.817Z,99.94
2023-05-20T08:44:11.616Z,100.00
2023-05-20T08:46:41.481Z,100.00
2023-05-20T08:49:09.655Z,100.00
2023-05-20T08:51:38.843Z,100.00
2023-05-20T08:54:08.963Z,100.00
2023-05-20T08:56:37.008Z,100.00
2023-05-20T08:59:05.540Z,100.00
2023-05-20T09:01:37.096Z,100.00
2023-05-20T09:04:05.230Z,100.00
2023-05-20T09:06:46.109Z,100.00
2023-05-20T09:09:14.761Z,100.00
2023-05-20T09:11:43.270Z,100.00
2023-05-20T09:14:10.930Z,100.00
2023-05-20T09:16:41.530Z,100.00
2023-05-20T09:19:11.122Z,100.00
2023-05-20T09:21:41.499Z,100.00
2023-05-20T09:24:09.647Z,100.00
2023-05-20T09:26:37.765Z,100.00
2023-05-20T09:29:05.492Z,100.00
2023-05-20T09:31:34.104Z,100.00
2023-05-20T09:34:02.890Z,100.00
2023-05-20T09:36:35.227Z,100.00
2023-05-20T09:39:05.545Z,100.00
2023-05-20T09:41:45.162Z,100.00
2023-05-20T09:44:14.141Z,100.00
2023-05-20T09:46:44.166Z,100.00
2023-05-20T09:49:13.268Z,100.00
2023-05-20T09:51:42.113Z,100.00
2023-05-20T09:54:12.911Z,99.34
2023-05-20T09:56:42.262Z,100.00
2023-05-20T09:59:11.655Z,100.00
2023-05-20T10:01:39.300Z,100.00
2023-05-20T10:04:09.597Z,100.00
2023-05-20T10:06:43.472Z,99.84
2023-05-20T10:09:30.405Z,100.00
2023-05-20T10:12:29.856Z,100.00
2023-05-20T10:15:10.601Z,100.00
2023-05-20T10:18:07.330Z,100.00
2023-05-20T10:20:46.321Z,97.36
2023-05-20T10:23:24.123Z,97.30
2023-05-20T10:25:53.667Z,98.15
2023-05-20T10:28:33.071Z,95.46
2023-05-20T10:31:00.924Z,97.20
2023-05-20T10:33:29.663Z,95.18
2023-05-20T10:36:01.270Z,94.01
2023-05-20T10:38:29.138Z,93.35
2023-05-20T10:41:09.160Z,91.41
2023-05-20T10:43:37.527Z,92.72
2023-05-20T10:46:07.549Z,91.27
2023-05-20T10:48:43.186Z,91.05
2023-05-20T10:51:15.120Z,89.63
2023-05-20T10:53:46.953Z,88.36
2023-05-20T10:56:25.594Z,87.58
2023-05-20T10:58:54.997Z,83.39
2023-05-20T11:01:27.246Z,83.03
2023-05-20T11:03:57.464Z,86.64
2023-05-20T11:06:29.127Z,84.14
2023-05-20T11:09:07.333Z,85.66
2023-05-20T11:11:35.405Z,81.23
2023-05-20T11:14:03.195Z,80.63
2023-05-20T11:16:31.622Z,83.13
2023-05-20T11:18:59.483Z,82.81
2023-05-20T11:21:28.554Z,83.71
2023-05-20T11:23:56.184Z,87.36
2023-05-20T11:26:25.148Z,86.95
2023-05-20T11:28:53.330Z,86.49
2023-05-20T11:31:21.786Z,87.67
2023-05-20T11:33:50.917Z,88.20
2023-05-20T11:36:27.482Z,90.55
2023-05-20T11:38:58.285Z,91.12
2023-05-20T11:41:29.422Z,89.45
2023-05-20T11:44:01.311Z,90.09
2023-05-20T11:46:29.127Z,88.99
2023-05-20T11:48:58.018Z,89.26
2023-05-20T11:51:30.139Z,90.62
2023-05-20T11:54:02.876Z,89.95
2023-05-20T11:56:32.077Z,89.20
2023-05-20T11:59:01.180Z,88.24
2023-05-20T12:01:42.967Z,89.17
2023-05-20T12:04:12.044Z,91.13
2023-05-20T12:06:40.166Z,89.00
2023-05-20T12:09:08.744Z,92.12
2023-05-20T12:11:39.818Z,91.36
2023-05-20T12:14:08.248Z,90.10
2023-05-20T12:16:37.006Z,89.43
2023-05-20T12:19:04.971Z,89.57
2023-05-20T12:21:33.112Z,87.28
2023-05-20T12:24:01.164Z,89.43
2023-05-20T12:26:30.175Z,89.82
2023-05-20T12:28:58.138Z,89.42
2023-05-20T12:31:26.572Z,88.87
2023-05-20T12:33:54.158Z,87.66
2023-05-20T12:36:22.003Z,88.22
2023-05-20T12:38:49.515Z,88.01
2023-05-20T12:41:17.233Z,87.08
2023-05-20T12:43:44.793Z,84.38
2023-05-20T12:46:12.851Z,86.30
2023-05-20T12:48:42.711Z,83.64
2023-05-20T12:51:10.548Z,83.09
2023-05-20T12:53:38.439Z,85.35
2023-05-20T12:56:07.891Z,82.87
2023-05-20T12:58:36.071Z,85.23
2023-05-20T13:01:04.335Z,85.72
2023-05-20T13:03:32.303Z,88.13
2023-05-20T13:06:00.638Z,88.38
2023-05-20T13:08:28.790Z,85.92
2023-05-20T13:10:57.195Z,88.91
2023-05-20T13:13:24.782Z,88.90
2023-05-20T13:15:53.255Z,86.01
2023-05-20T13:18:21.510Z,83.59
2023-05-20T13:20:49.144Z,84.47
2023-05-20T13:23:16.732Z,85.70
2023-05-20T13:25:45.202Z,85.61
2023-05-20T13:28:16.646Z,86.27
2023-05-20T13:30:44.853Z,84.74
2023-05-20T13:33:12.945Z,86.31
2023-05-20T13:35:41.095Z,88.23
2023-05-20T13:38:10.460Z,87.19
2023-05-20T13:40:37.962Z,88.63
2023-05-20T13:43:05.580Z,88.18
2023-05-20T13:45:33.597Z,87.28
2023-05-20T13:48:01.761Z,90.21
2023-05-20T13:50:29.472Z,91.09
2023-05-20T13:52:57.532Z,90.93
2023-05-20T13:55:26.051Z,90.35
2023-05-20T13:57:54.402Z,91.48
2023-05-20T14:00:22.505Z,91.09
2023-05-20T14:02:50.555Z,90.48
2023-05-20T14:05:18.994Z,88.89
2023-05-20T14:07:46.603Z,90.52
2023-05-20T14:10:14.526Z,90.71
2023-05-20T14:12:48.049Z,87.06
2023-05-20T14:15:16.349Z,85.47
2023-05-20T14:17:44.253Z,87.91
2023-05-20T14:20:12.223Z,90.02
2023-05-20T14:22:40.229Z,88.96
2023-05-20T14:25:09.182Z,86.25
2023-05-20T14:27:36.735Z,82.87
2023-05-20T14:30:04.886Z,80.71
2023-05-20T14:32:32.698Z,82.50
2023-05-20T14:35:00.572Z,84.19
2023-05-20T14:37:28.279Z,86.31
2023-05-20T14:39:56.240Z,83.83
2023-05-20T14:42:24.206Z,82.55
2023-05-20T14:44:51.763Z,86.58
2023-05-20T14:47:22.275Z,85.92
2023-05-20T14:49:50.283Z,88.64
2023-05-20T14:52:19.259Z,90.27
2023-05-20T14:54:46.901Z,93.15
2023-05-20T14:57:16.097Z,97.18
2023-05-20T14:59:44.378Z,95.92
2023-05-20T15:02:15.587Z,97.11
2023-05-20T15:04:46.427Z,96.00
2023-05-20T15:07:15.234Z,97.58
2023-05-20T15:09:43.970Z,96.04
2023-05-20T15:12:12.092Z,96.79
2023-05-20T15:14:40.187Z,97.32
2023-05-20T15:17:08.580Z,96.62
2023-05-20T15:19:39.639Z,94.56
2023-05-20T15:22:08.586Z,98.30
2023-05-20T15:24:36.206Z,100.00
2023-05-20T15:27:04.334Z,100.00
2023-05-20T15:29:31.942Z,100.00
2023-05-20T15:31:59.571Z,99.21
2023-05-20T15:34:28.116Z,99.21
2023-05-20T15:36:56.108Z,96.50
2023-05-20T15:39:23.680Z,96.74
2023-05-20T15:41:52.378Z,99.26
2023-05-20T15:44:20.960Z,97.19
2023-05-20T15:46:49.339Z,97.95
2023-05-20T15:49:17.479Z,96.18
2023-05-20T15:51:52.163Z,97.05
2023-05-20T15:54:30.107Z,97.17
2023-05-20T15:56:58.137Z,97.00
2023-05-20T15:59:26.685Z,96.49
2023-05-20T16:01:54.255Z,97.40
2023-05-20T16:04:22.370Z,97.23
2023-05-20T16:06:50.083Z,98.76
2023-05-20T16:09:17.671Z,96.94
2023-05-20T16:11:45.913Z,96.14
2023-05-20T16:14:13.846Z,96.00
2023-05-20T16:16:42.003Z,95.65
2023-05-20T16:19:10.317Z,95.04
2023-05-20T16:21:38.195Z,95.99
2023-05-20T16:24:06.008Z,95.72
2023-05-20T16:26:34.190Z,96.38
2023-05-20T16:29:01.760Z,94.74
2023-05-20T16:31:29.968Z,96.03
2023-05-20T16:33:58.250Z,96.11
2023-05-20T16:36:25.952Z,97.44
2023-05-20T16:38:53.590Z,99.27
2023-05-20T16:41:22.919Z,98.96
2023-05-20T16:43:50.551Z,100.00
2023-05-20T16:46:18.302Z,100.00
2023-05-20T16:48:46.375Z,100.00
2023-05-20T16:51:14.254Z,100.00
2023-05-20T16:53:41.775Z,100.00
2023-05-20T16:56:09.445Z,100.00
2023-05-20T16:58:37.508Z,100.00
2023-05-20T17:01:05.241Z,100.00
2023-05-20T17:03:33.439Z,100.00
2023-05-20T17:06:01.854Z,100.00
2023-05-20T17:08:29.907Z,100.00
2023-05-20T17:10:59.755Z,100.00
2023-05-20T17:13:27.331Z,100.00
2023-05-20T17:15:55.501Z,100.00
2023-05-20T17:18:23.514Z,100.00
2023-05-20T17:20:51.748Z,100.00
2023-05-20T17:23:19.330Z,100.00
2023-05-20T17:25:47.334Z,100.00
2023-05-20T17:28:14.907Z,100.00
2023-05-20T17:30:42.891Z,100.00
2023-05-20T17:33:11.318Z,100.00
2023-05-20T17:35:39.077Z,100.00
2023-05-20T17:38:07.243Z,100.00
2023-05-20T17:40:36.061Z,100.00
2023-05-20T17:43:04.031Z,100.00
2023-05-20T17:45:31.726Z,100.00
2023-05-20T17:47:59.722Z,100.00
2023-05-20T17:50:27.472Z,100.00
2023-05-20T17:52:55.249Z,100.00
2023-05-20T17:55:23.431Z,100.00
2023-05-20T17:57:51.394Z,100.00
2023-05-20T18:00:21.512Z,100.00
2023-05-20T18:02:49.965Z,100.00
2023-05-20T18:05:18.206Z,100.00
2023-05-20T18:07:46.052Z,100.00
2023-05-20T18:10:14.455Z,100.00
2023-05-20T18:12:42.928Z,100.00
2023-05-20T18:15:10.706Z,100.00
2023-05-20T18:17:40.171Z,100.00
2023-05-20T18:20:09.781Z,100.00
2023-05-20T18:22:40.304Z,100.00
2023-05-20T18:25:09.120Z,100.00
2023-05-20T18:27:37.140Z,100.00
2023-05-20T18:30:05.498Z,100.00
2023-05-20T18:32:33.416Z,100.00
2023-05-20T18:35:01.586Z,100.00
2023-05-20T18:37:30.086Z,100.00
2023-05-20T18:39:58.875Z,100.00
2023-05-20T18:42:26.573Z,100.00
2023-05-20T18:44:54.354Z,100.00
2023-05-20T18:47:22.005Z,100.00
2023-05-20T18:49:50.047Z,100.00
2023-05-20T18:52:18.197Z,100.00
2023-05-20T18:54:46.411Z,100.00
2023-05-20T18:57:14.085Z,100.00
2023-05-20T18:59:42.066Z,100.00
2023-05-20T19:02:10.181Z,100.00
2023-05-20T19:04:38.213Z,100.00
2023-05-20T19:07:07.013Z,100.00
2023-05-20T19:09:35.118Z,100.00
2023-05-20T19:12:04.924Z,100.00
2023-05-20T19:14:32.992Z,100.00
2023-05-20T19:17:01.330Z,100.00
2023-05-20T19:19:29.589Z,100.00
2023-05-20T19:21:57.374Z,100.00
2023-05-20T19:24:25.358Z,100.00
2023-05-20T19:26:52.879Z,100.00
2023-05-20T19:29:20.577Z,100.00
2023-05-20T19:31:48.220Z,100.00
2023-05-20T19:34:15.931Z,100.00
2023-05-20T19:36:44.518Z,100.00
2023-05-20T19:39:12.149Z,100.00
2023-05-20T19:41:40.237Z,100.00
2023-05-20T19:44:08.836Z,100.00
2023-05-20T19:46:36.892Z,100.00
2023-05-20T19:49:04.705Z,100.00
2023-05-20T19:51:32.449Z,100.00
2023-05-20T19:54:00.721Z,100.00
2023-05-20T19:56:28.338Z,100.00
2023-05-20T19:58:57.627Z,100.00
2023-05-20T20:01:25.583Z,100.00
2023-05-20T20:03:53.980Z,100.00
2023-05-20T20:06:21.776Z,100.00
2023-05-20T20:08:49.786Z,100.00
2023-05-20T20:11:17.736Z,100.00
2023-05-20T20:13:46.476Z,100.00
2023-05-20T20:16:15.593Z,100.00
2023-05-20T20:18:43.379Z,100.00
2023-05-20T20:21:11.480Z,100.00
2023-05-20T20:23:39.098Z,100.00
2023-05-20T20:26:07.849Z,100.00
2023-05-20T20:28:35.519Z,100.00
2023-05-20T20:31:03.548Z,100.00
2023-05-20T20:33:31.958Z,100.00
2023-05-20T20:35:59.546Z,100.00
2023-05-20T20:38:27.087Z,100.00
2023-05-20T20:40:55.126Z,100.00
2023-05-20T20:43:22.965Z,100.00
2023-05-20T20:45:53.176Z,100.00
2023-05-20T20:48:26.598Z,100.00
2023-05-20T20:50:54.502Z,100.00
2023-05-20T20:53:22.585Z,100.00
2023-05-20T20:55:51.580Z,100.00
2023-05-20T20:58:20.132Z,100.00
2023-05-20T21:00:48.853Z,100.00
2023-05-20T21:03:18.511Z,100.00
2023-05-20T21:05:48.594Z,100.00
2023-05-20T21:08:16.645Z,100.00
2023-05-20T21:10:44.761Z,100.00
2023-05-20T21:13:12.368Z,100.00
2023-05-20T21:15:41.806Z,100.00
2023-05-20T21:18:09.972Z,100.00
2023-05-20T21:20:37.550Z,100.00
2023-05-20T21:23:05.298Z,100.00
2023-05-20T21:25:32.864Z,100.00
2023-05-20T21:28:00.565Z,100.00
2023-05-20T21:30:28.518Z,100.00
2023-05-20T21:32:56.145Z,100.00
2023-05-20T21:35:24.184Z,100.00
2023-05-20T21:37:52.244Z,100.00
2023-05-20T21:40:20.450Z,100.00
2023-05-20T21:42:50.701Z,100.00
2023-05-20T21:45:18.541Z,100.00
2023-05-20T21:47:47.117Z,100.00
2023-05-20T21:50:15.392Z,100.00
2023-05-20T21:52:43.283Z,100.00
2023-05-20T21:55:11.902Z,100.00
2023-05-20T21:57:39.582Z,100.00
2023-05-20T22:00:10.559Z,100.00
2023-05-20T22:02:38.422Z,100.00
2023-05-20T22:05:06.620Z,100.00
2023-05-20T22:07:34.595Z,100.00
2023-05-20T22:10:02.394Z,100.00
2023-05-20T22:12:29.990Z,100.00
2023-05-20T22:14:58.180Z,100.00
2023-05-20T22:17:26.320Z,100.00
2023-05-20T22:19:54.362Z,100.00
2023-05-20T22:22:22.543Z,100.00
2023-05-20T22:24:50.118Z,100.00
2023-05-20T22:27:18.125Z,100.00
2023-05-20T22:29:46.250Z,100.00
2023-05-20T22:32:14.203Z,100.00
2023-05-20T22:34:42.780Z,100.00
2023-05-20T22:37:11.780Z,100.00
2023-05-20T22:39:39.954Z,100.00
2023-05-20T22:42:07.547Z,100.00
2023-05-20T22:44:35.116Z,100.00
2023-05-20T22:47:03.150Z,100.00
2023-05-20T22:49:30.798Z,100.00
2023-05-20T22:51:59.347Z,100.00
2023-05-20T22:54:27.362Z,100.00
2023-05-20T22:56:59.139Z,100.00
2023-05-20T22:59:26.973Z,100.00
2023-05-20T23:01:55.118Z,100.00
2023-05-20T23:04:23.783Z,100.00
2023-05-20T23:06:53.807Z,100.00
2023-05-20T23:09:21.515Z,100.00
2023-05-20T23:11:49.057Z,100.00
2023-05-20T23:14:17.115Z,100.00
2023-05-20T23:16:44.769Z,100.00
2023-05-20T23:19:12.468Z,100.00
2023-05-20T23:21:40.716Z,100.00
2023-05-20T23:24:08.586Z,100.00
2023-05-20T23:26:37.825Z,100.00
2023-05-20T23:29:05.516Z,100.00
2023-05-20T23:31:33.953Z,100.00
2023-05-20T23:34:03.745Z,100.00
2023-05-20T23:36:34.582Z,100.00
2023-05-20T23:39:02.885Z,100.00
2023-05-20T23:41:30.728Z,100.00
2023-05-20T23:43:58.415Z,100.00
2023-05-20T23:46:26.475Z,100.00
2023-05-20T23:48:54.925Z,100.00
2023-05-20T23:51:22.956Z,100.00
2023-05-20T23:53:50.545Z,100.00
2023-05-20T23:56:18.262Z,100.00
2023-05-20T23:58:47.330Z,100.00
